sensor_id;sensor_type;location;lat;lon;timestamp;P1;durP1;ratioP1;P2;durP2;ratioP2
505;SDS011;551;48.524;9.056;2023-03-01T00:00:26;20.67;;;10.67;;
505;SDS011;551;48.524;9.056;2023-03-01T00:02:52;18.40;;;11.37;;
505;SDS011;551;48.524;9.056;2023-03-01T00:05:17;19.87;;;10.53;;
505;SDS011;551;48.524;9.056;2023-03-01T00:07:43;24.73;;;12.37;;
505;SDS011;551;48.524;9.056;2023-03-01T00:10:08;21.37;;;12.20;;
505;SDS011;551;48.524;9.056;2023-03-01T00:12:34;19.23;;;11.07;;
505;SDS011;551;48.524;9.056;2023-03-01T00:15:01;18.10;;;11.20;;
505;SDS011;551;48.524;9.056;2023-03-01T00:17:27;18.43;;;10.50;;
505;SDS011;551;48.524;9.056;2023-03-01T00:19:53;17.73;;;11.50;;
505;SDS011;551;48.524;9.056;2023-03-01T00:22:19;17.97;;;11.33;;
505;SDS011;551;48.524;9.056;2023-03-01T00:24:44;19.67;;;12.13;;
505;SDS011;551;48.524;9.056;2023-03-01T00:27:10;17.77;;;11.27;;
505;SDS011;551;48.524;9.056;2023-03-01T00:29:35;17.17;;;10.53;;
505;SDS011;551;48.524;9.056;2023-03-01T00:32:01;18.43;;;11.17;;
505;SDS011;551;48.524;9.056;2023-03-01T00:34:26;19.67;;;11.83;;
505;SDS011;551;48.524;9.056;2023-03-01T00:36:52;21.17;;;10.33;;
505;SDS011;551;48.524;9.056;2023-03-01T00:39:17;18.10;;;11.60;;
505;SDS011;551;48.524;9.056;2023-03-01T00:41:43;20.23;;;11.57;;
505;SDS011;551;48.524;9.056;2023-03-01T00:44:09;17.23;;;11.67;;
505;SDS011;551;48.524;9.056;2023-03-01T00:46:35;20.80;;;11.73;;
505;SDS011;551;48.524;9.056;2023-03-01T00:49:00;18.73;;;11.10;;
505;SDS011;551;48.524;9.056;2023-03-01T00:51:27;18.90;;;12.40;;
505;SDS011;551;48.524;9.056;2023-03-01T00:53:54;20.40;;;12.00;;
505;SDS011;551;48.524;9.056;2023-03-01T00:56:21;22.50;;;14.30;;
505;SDS011;551;48.524;9.056;2023-03-01T00:58:47;23.00;;;12.80;;
505;SDS011;551;48.524;9.056;2023-03-01T01:01:15;23.10;;;11.67;;
505;SDS011;551;48.524;9.056;2023-03-01T01:06:19;18.37;;;11.17;;
505;SDS011;551;48.524;9.056;2023-03-01T01:08:47;20.63;;;12.83;;
505;SDS011;551;48.524;9.056;2023-03-01T01:11:13;27.90;;;11.43;;
505;SDS011;551;48.524;9.056;2023-03-01T01:13:39;24.73;;;12.23;;
505;SDS011;551;48.524;9.056;2023-03-01T01:16:05;23.50;;;12.13;;
505;SDS011;551;48.524;9.056;2023-03-01T01:18:31;18.50;;;11.77;;
505;SDS011;551;48.524;9.056;2023-03-01T01:20:57;24.00;;;12.07;;
505;SDS011;551;48.524;9.056;2023-03-01T01:23:22;19.50;;;11.60;;
505;SDS011;551;48.524;9.056;2023-03-01T01:25:48;20.03;;;11.97;;
505;SDS011;551;48.524;9.056;2023-03-01T01:28:14;23.00;;;12.00;;
505;SDS011;551;48.524;9.056;2023-03-01T01:30:39;21.97;;;13.53;;
505;SDS011;551;48.524;9.056;2023-03-01T01:33:05;21.80;;;12.60;;
505;SDS011;551;48.524;9.056;2023-03-01T01:35:30;17.83;;;12.63;;
505;SDS011;551;48.524;9.056;2023-03-01T01:37:56;19.70;;;11.87;;
505;SDS011;551;48.524;9.056;2023-03-01T01:40:21;21.13;;;12.97;;
505;SDS011;551;48.524;9.056;2023-03-01T01:42:47;23.30;;;12.53;;
505;SDS011;551;48.524;9.056;2023-03-01T01:45:45;22.90;;;12.87;;
505;SDS011;551;48.524;9.056;2023-03-01T01:48:05;26.00;;;13.30;;
505;SDS011;551;48.524;9.056;2023-03-01T01:50:35;20.33;;;12.37;;
505;SDS011;551;48.524;9.056;2023-03-01T01:53:07;24.37;;;14.57;;
505;SDS011;551;48.524;9.056;2023-03-01T01:55:35;20.83;;;12.10;;
505;SDS011;551;48.524;9.056;2023-03-01T01:58:04;21.07;;;13.70;;
505;SDS011;551;48.524;9.056;2023-03-01T02:00:32;23.80;;;15.13;;
505;SDS011;551;48.524;9.056;2023-03-01T02:02:59;29.23;;;15.07;;
505;SDS011;551;48.524;9.056;2023-03-01T02:07:58;30.87;;;15.27;;
505;SDS011;551;48.524;9.056;2023-03-01T02:10:24;23.50;;;13.93;;
505;SDS011;551;48.524;9.056;2023-03-01T02:12:51;33.23;;;16.23;;
505;SDS011;551;48.524;9.056;2023-03-01T02:15:18;21.80;;;15.57;;
505;SDS011;551;48.524;9.056;2023-03-01T02:17:44;23.00;;;14.17;;
505;SDS011;551;48.524;9.056;2023-03-01T02:22:53;27.87;;;14.33;;
505;SDS011;551;48.524;9.056;2023-03-01T02:30:44;30.13;;;16.40;;
505;SDS011;551;48.524;9.056;2023-03-01T02:33:31;22.50;;;13.37;;
505;SDS011;551;48.524;9.056;2023-03-01T02:36:01;26.47;;;14.37;;
505;SDS011;551;48.524;9.056;2023-03-01T02:38:55;26.50;;;14.53;;
505;SDS011;551;48.524;9.056;2023-03-01T02:41:23;26.30;;;14.60;;
505;SDS011;551;48.524;9.056;2023-03-01T02:43:51;21.73;;;13.67;;
505;SDS011;551;48.524;9.056;2023-03-01T02:46:18;21.87;;;14.40;;
505;SDS011;551;48.524;9.056;2023-03-01T02:48:54;21.57;;;13.63;;
505;SDS011;551;48.524;9.056;2023-03-01T02:54:15;31.93;;;14.27;;
505;SDS011;551;48.524;9.056;2023-03-01T02:56:42;21.33;;;13.70;;
505;SDS011;551;48.524;9.056;2023-03-01T02:59:09;21.20;;;12.70;;
505;SDS011;551;48.524;9.056;2023-03-01T03:01:35;24.43;;;13.33;;
505;SDS011;551;48.524;9.056;2023-03-01T03:04:02;21.37;;;12.43;;
505;SDS011;551;48.524;9.056;2023-03-01T03:06:32;25.17;;;15.33;;
505;SDS011;551;48.524;9.056;2023-03-01T03:08:58;24.60;;;14.17;;
505;SDS011;551;48.524;9.056;2023-03-01T03:11:24;21.90;;;13.93;;
505;SDS011;551;48.524;9.056;2023-03-01T03:13:50;24.50;;;14.80;;
505;SDS011;551;48.524;9.056;2023-03-01T03:16:18;23.70;;;14.83;;
505;SDS011;551;48.524;9.056;2023-03-01T03:18:44;18.90;;;13.70;;
505;SDS011;551;48.524;9.056;2023-03-01T03:21:11;24.43;;;14.50;;
505;SDS011;551;48.524;9.056;2023-03-01T03:23:37;23.53;;;13.80;;
505;SDS011;551;48.524;9.056;2023-03-01T03:26:04;24.57;;;13.73;;
505;SDS011;551;48.524;9.056;2023-03-01T03:28:30;20.40;;;13.33;;
505;SDS011;551;48.524;9.056;2023-03-01T03:30:57;22.00;;;13.10;;
505;SDS011;551;48.524;9.056;2023-03-01T03:33:23;26.67;;;14.30;;
505;SDS011;551;48.524;9.056;2023-03-01T03:35:49;23.30;;;13.60;;
505;SDS011;551;48.524;9.056;2023-03-01T03:38:16;27.37;;;14.80;;
505;SDS011;551;48.524;9.056;2023-03-01T03:40:48;19.40;;;13.10;;
505;SDS011;551;48.524;9.056;2023-03-01T03:43:16;26.73;;;14.47;;
505;SDS011;551;48.524;9.056;2023-03-01T03:45:44;18.50;;;12.43;;
505;SDS011;551;48.524;9.056;2023-03-01T03:48:11;19.70;;;13.70;;
505;SDS011;551;48.524;9.056;2023-03-01T03:50:38;20.57;;;13.67;;
505;SDS011;551;48.524;9.056;2023-03-01T03:53:06;21.27;;;14.37;;
505;SDS011;551;48.524;9.056;2023-03-01T03:55:34;25.93;;;13.00;;
505;SDS011;551;48.524;9.056;2023-03-01T03:58:03;24.50;;;15.30;;
505;SDS011;551;48.524;9.056;2023-03-01T04:00:32;25.10;;;14.73;;
505;SDS011;551;48.524;9.056;2023-03-01T04:02:59;26.00;;;14.53;;
505;SDS011;551;48.524;9.056;2023-03-01T04:05:25;23.47;;;13.53;;
505;SDS011;551;48.524;9.056;2023-03-01T04:07:51;25.53;;;13.80;;
505;SDS011;551;48.524;9.056;2023-03-01T04:10:27;25.97;;;15.40;;
505;SDS011;551;48.524;9.056;2023-03-01T04:12:54;23.97;;;13.23;;
505;SDS011;551;48.524;9.056;2023-03-01T04:15:24;32.87;;;13.97;;
505;SDS011;551;48.524;9.056;2023-03-01T04:17:51;21.67;;;12.77;;
505;SDS011;551;48.524;9.056;2023-03-01T04:20:18;25.57;;;15.43;;
505;SDS011;551;48.524;9.056;2023-03-01T04:25:33;21.93;;;14.27;;
505;SDS011;551;48.524;9.056;2023-03-01T04:27:58;26.70;;;15.10;;
505;SDS011;551;48.524;9.056;2023-03-01T04:30:24;25.13;;;13.93;;
505;SDS011;551;48.524;9.056;2023-03-01T04:32:50;27.47;;;14.70;;
505;SDS011;551;48.524;9.056;2023-03-01T04:35:15;26.37;;;15.13;;
505;SDS011;551;48.524;9.056;2023-03-01T04:37:41;21.20;;;12.47;;
505;SDS011;551;48.524;9.056;2023-03-01T04:40:06;27.50;;;13.90;;
505;SDS011;551;48.524;9.056;2023-03-01T04:42:38;24.33;;;14.10;;
505;SDS011;551;48.524;9.056;2023-03-01T04:45:04;23.40;;;14.63;;
505;SDS011;551;48.524;9.056;2023-03-01T04:47:37;30.23;;;15.60;;
505;SDS011;551;48.524;9.056;2023-03-01T04:50:07;25.50;;;15.00;;
505;SDS011;551;48.524;9.056;2023-03-01T04:52:34;22.57;;;14.83;;
505;SDS011;551;48.524;9.056;2023-03-01T04:55:00;26.43;;;15.77;;
505;SDS011;551;48.524;9.056;2023-03-01T04:57:26;25.93;;;15.50;;
505;SDS011;551;48.524;9.056;2023-03-01T04:59:51;26.10;;;14.50;;
505;SDS011;551;48.524;9.056;2023-03-01T05:02:17;23.03;;;14.17;;
505;SDS011;551;48.524;9.056;2023-03-01T05:04:42;22.83;;;14.57;;
505;SDS011;551;48.524;9.056;2023-03-01T05:07:08;21.63;;;13.40;;
505;SDS011;551;48.524;9.056;2023-03-01T05:09:34;35.30;;;15.27;;
505;SDS011;551;48.524;9.056;2023-03-01T05:11:59;24.13;;;14.43;;
505;SDS011;551;48.524;9.056;2023-03-01T05:14:25;21.97;;;13.40;;
505;SDS011;551;48.524;9.056;2023-03-01T05:16:50;24.33;;;15.13;;
505;SDS011;551;48.524;9.056;2023-03-01T05:19:16;26.50;;;14.27;;
505;SDS011;551;48.524;9.056;2023-03-01T05:21:47;29.90;;;15.33;;
505;SDS011;551;48.524;9.056;2023-03-01T05:24:32;26.00;;;15.67;;
505;SDS011;551;48.524;9.056;2023-03-01T05:26:59;32.67;;;17.47;;
505;SDS011;551;48.524;9.056;2023-03-01T05:29:26;23.90;;;14.47;;
505;SDS011;551;48.524;9.056;2023-03-01T05:31:53;24.50;;;14.10;;
505;SDS011;551;48.524;9.056;2023-03-01T05:34:26;23.43;;;13.53;;
505;SDS011;551;48.524;9.056;2023-03-01T05:36:53;24.20;;;13.27;;
505;SDS011;551;48.524;9.056;2023-03-01T05:39:19;25.57;;;14.23;;
505;SDS011;551;48.524;9.056;2023-03-01T05:41:51;28.63;;;14.43;;
505;SDS011;551;48.524;9.056;2023-03-01T05:44:21;21.90;;;13.17;;
505;SDS011;551;48.524;9.056;2023-03-01T05:46:47;27.20;;;15.70;;
505;SDS011;551;48.524;9.056;2023-03-01T05:49:12;25.73;;;14.10;;
505;SDS011;551;48.524;9.056;2023-03-01T05:51:39;29.30;;;15.17;;
505;SDS011;551;48.524;9.056;2023-03-01T05:54:06;22.70;;;14.10;;
505;SDS011;551;48.524;9.056;2023-03-01T05:56:32;20.83;;;13.53;;
505;SDS011;551;48.524;9.056;2023-03-01T05:58:59;31.60;;;14.70;;
505;SDS011;551;48.524;9.056;2023-03-01T06:01:25;30.40;;;14.67;;
505;SDS011;551;48.524;9.056;2023-03-01T06:03:50;22.90;;;14.00;;
505;SDS011;551;48.524;9.056;2023-03-01T06:06:16;23.33;;;14.63;;
505;SDS011;551;48.524;9.056;2023-03-01T06:08:41;26.20;;;14.60;;
505;SDS011;551;48.524;9.056;2023-03-01T06:11:07;26.63;;;15.37;;
505;SDS011;551;48.524;9.056;2023-03-01T06:13:32;26.43;;;15.10;;
505;SDS011;551;48.524;9.056;2023-03-01T06:15:58;26.07;;;15.37;;
505;SDS011;551;48.524;9.056;2023-03-01T06:18:23;24.33;;;14.40;;
505;SDS011;551;48.524;9.056;2023-03-01T06:20:53;22.93;;;14.37;;
505;SDS011;551;48.524;9.056;2023-03-01T06:23:19;24.23;;;15.30;;
505;SDS011;551;48.524;9.056;2023-03-01T06:25:45;24.33;;;14.37;;
505;SDS011;551;48.524;9.056;2023-03-01T06:28:11;24.77;;;15.23;;
505;SDS011;551;48.524;9.056;2023-03-01T06:30:36;29.17;;;15.90;;
505;SDS011;551;48.524;9.056;2023-03-01T06:33:02;30.03;;;17.33;;
505;SDS011;551;48.524;9.056;2023-03-01T06:35:28;23.67;;;14.80;;
505;SDS011;551;48.524;9.056;2023-03-01T06:37:56;27.10;;;16.20;;
505;SDS011;551;48.524;9.056;2023-03-01T06:40:22;23.57;;;15.43;;
505;SDS011;551;48.524;9.056;2023-03-01T06:42:49;25.03;;;16.47;;
505;SDS011;551;48.524;9.056;2023-03-01T06:45:15;28.50;;;15.40;;
505;SDS011;551;48.524;9.056;2023-03-01T06:47:41;23.80;;;14.50;;
505;SDS011;551;48.524;9.056;2023-03-01T06:50:06;22.70;;;13.47;;
505;SDS011;551;48.524;9.056;2023-03-01T06:52:32;29.93;;;14.93;;
505;SDS011;551;48.524;9.056;2023-03-01T06:54:58;22.33;;;14.13;;
505;SDS011;551;48.524;9.056;2023-03-01T06:57:24;27.87;;;15.00;;
505;SDS011;551;48.524;9.056;2023-03-01T06:59:50;25.47;;;15.57;;
505;SDS011;551;48.524;9.056;2023-03-01T07:02:16;25.40;;;14.17;;
505;SDS011;551;48.524;9.056;2023-03-01T07:04:42;33.43;;;14.27;;
505;SDS011;551;48.524;9.056;2023-03-01T07:07:07;30.70;;;15.03;;
505;SDS011;551;48.524;9.056;2023-03-01T07:09:33;22.67;;;15.37;;
505;SDS011;551;48.524;9.056;2023-03-01T07:11:59;31.40;;;15.33;;
505;SDS011;551;48.524;9.056;2023-03-01T07:14:25;25.33;;;15.97;;
505;SDS011;551;48.524;9.056;2023-03-01T07:16:51;31.43;;;15.30;;
505;SDS011;551;48.524;9.056;2023-03-01T07:19:17;24.33;;;14.70;;
505;SDS011;551;48.524;9.056;2023-03-01T07:21:42;23.50;;;14.93;;
505;SDS011;551;48.524;9.056;2023-03-01T07:24:08;25.60;;;14.60;;
505;SDS011;551;48.524;9.056;2023-03-01T07:26:34;22.90;;;15.27;;
505;SDS011;551;48.524;9.056;2023-03-01T07:29:01;23.57;;;15.13;;
505;SDS011;551;48.524;9.056;2023-03-01T07:31:28;28.20;;;14.93;;
505;SDS011;551;48.524;9.056;2023-03-01T07:33:54;20.27;;;14.90;;
505;SDS011;551;48.524;9.056;2023-03-01T07:36:19;22.60;;;14.73;;
505;SDS011;551;48.524;9.056;2023-03-01T07:38:45;27.17;;;15.87;;
505;SDS011;551;48.524;9.056;2023-03-01T07:41:11;22.90;;;15.97;;
505;SDS011;551;48.524;9.056;2023-03-01T07:43:36;18.20;;;13.50;;
505;SDS011;551;48.524;9.056;2023-03-01T07:46:02;22.10;;;13.90;;
505;SDS011;551;48.524;9.056;2023-03-01T07:48:29;22.63;;;16.27;;
505;SDS011;551;48.524;9.056;2023-03-01T07:50:59;23.03;;;15.10;;
505;SDS011;551;48.524;9.056;2023-03-01T07:53:25;22.43;;;16.50;;
505;SDS011;551;48.524;9.056;2023-03-01T07:55:59;28.53;;;16.17;;
505;SDS011;551;48.524;9.056;2023-03-01T07:58:40;18.50;;;14.67;;
505;SDS011;551;48.524;9.056;2023-03-01T08:01:08;21.60;;;15.20;;
505;SDS011;551;48.524;9.056;2023-03-01T08:03:36;25.53;;;17.23;;
505;SDS011;551;48.524;9.056;2023-03-01T08:06:03;17.93;;;14.60;;
505;SDS011;551;48.524;9.056;2023-03-01T08:08:30;27.80;;;18.43;;
505;SDS011;551;48.524;9.056;2023-03-01T08:10:57;20.77;;;15.63;;
505;SDS011;551;48.524;9.056;2023-03-01T08:13:24;24.40;;;17.13;;
505;SDS011;551;48.524;9.056;2023-03-01T08:15:49;21.53;;;16.20;;
505;SDS011;551;48.524;9.056;2023-03-01T08:18:16;23.20;;;15.73;;
505;SDS011;551;48.524;9.056;2023-03-01T08:20:42;22.17;;;17.57;;
505;SDS011;551;48.524;9.056;2023-03-01T08:23:07;23.37;;;17.23;;
505;SDS011;551;48.524;9.056;2023-03-01T08:25:33;23.00;;;16.37;;
505;SDS011;551;48.524;9.056;2023-03-01T08:27:58;27.47;;;17.27;;
505;SDS011;551;48.524;9.056;2023-03-01T08:30:24;20.80;;;16.13;;
505;SDS011;551;48.524;9.056;2023-03-01T08:32:50;24.30;;;16.20;;
505;SDS011;551;48.524;9.056;2023-03-01T08:35:15;22.47;;;17.00;;
505;SDS011;551;48.524;9.056;2023-03-01T08:37:41;23.87;;;16.87;;
505;SDS011;551;48.524;9.056;2023-03-01T08:40:07;22.00;;;16.73;;
505;SDS011;551;48.524;9.056;2023-03-01T08:42:35;22.00;;;15.70;;
505;SDS011;551;48.524;9.056;2023-03-01T08:45:01;23.02;;;17.77;;
505;SDS011;551;48.524;9.056;2023-03-01T08:47:27;22.67;;;16.80;;
505;SDS011;551;48.524;9.056;2023-03-01T08:49:53;21.87;;;16.80;;
505;SDS011;551;48.524;9.056;2023-03-01T08:52:19;22.73;;;16.60;;
505;SDS011;551;48.524;9.056;2023-03-01T08:54:47;28.00;;;17.80;;
505;SDS011;551;48.524;9.056;2023-03-01T08:57:13;23.10;;;16.20;;
505;SDS011;551;48.524;9.056;2023-03-01T08:59:39;18.97;;;16.30;;
505;SDS011;551;48.524;9.056;2023-03-01T09:02:08;23.57;;;17.30;;
505;SDS011;551;48.524;9.056;2023-03-01T09:04:40;25.47;;;16.90;;
505;SDS011;551;48.524;9.056;2023-03-01T09:07:06;22.50;;;15.83;;
505;SDS011;551;48.524;9.056;2023-03-01T09:09:32;20.33;;;16.40;;
505;SDS011;551;48.524;9.056;2023-03-01T09:11:58;21.20;;;16.37;;
505;SDS011;551;48.524;9.056;2023-03-01T09:14:23;19.93;;;17.40;;
505;SDS011;551;48.524;9.056;2023-03-01T09:16:52;20.20;;;16.93;;
505;SDS011;551;48.524;9.056;2023-03-01T09:19:17;19.33;;;16.10;;
505;SDS011;551;48.524;9.056;2023-03-01T09:21:43;22.40;;;17.00;;
505;SDS011;551;48.524;9.056;2023-03-01T09:24:19;22.03;;;17.30;;
505;SDS011;551;48.524;9.056;2023-03-01T09:26:46;21.67;;;16.60;;
505;SDS011;551;48.524;9.056;2023-03-01T09:29:12;23.20;;;16.57;;
505;SDS011;551;48.524;9.056;2023-03-01T09:31:39;19.53;;;16.10;;
505;SDS011;551;48.524;9.056;2023-03-01T09:34:05;23.10;;;18.13;;
505;SDS011;551;48.524;9.056;2023-03-01T09:36:31;24.40;;;16.90;;
505;SDS011;551;48.524;9.056;2023-03-01T09:38:57;20.40;;;16.83;;
505;SDS011;551;48.524;9.056;2023-03-01T09:44:15;18.70;;;15.60;;
505;SDS011;551;48.524;9.056;2023-03-01T09:47:05;23.10;;;17.50;;
505;SDS011;551;48.524;9.056;2023-03-01T09:49:39;23.70;;;18.00;;
505;SDS011;551;48.524;9.056;2023-03-01T09:52:17;23.57;;;18.00;;
505;SDS011;551;48.524;9.056;2023-03-01T09:55:12;20.80;;;17.23;;
505;SDS011;551;48.524;9.056;2023-03-01T10:02:43;21.20;;;17.23;;
505;SDS011;551;48.524;9.056;2023-03-01T10:08:23;20.17;;;17.60;;
505;SDS011;551;48.524;9.056;2023-03-01T10:10:58;24.40;;;17.77;;
505;SDS011;551;48.524;9.056;2023-03-01T10:13:29;25.90;;;19.50;;
505;SDS011;551;48.524;9.056;2023-03-01T10:16:18;20.10;;;16.80;;
505;SDS011;551;48.524;9.056;2023-03-01T10:18:52;19.57;;;16.23;;
505;SDS011;551;48.524;9.056;2023-03-01T10:21:23;20.60;;;17.03;;
505;SDS011;551;48.524;9.056;2023-03-01T10:23:52;25.07;;;19.57;;
505;SDS011;551;48.524;9.056;2023-03-01T10:26:25;29.40;;;17.60;;
505;SDS011;551;48.524;9.056;2023-03-01T10:31:30;20.73;;;17.13;;
505;SDS011;551;48.524;9.056;2023-03-01T10:36:41;20.60;;;16.97;;
505;SDS011;551;48.524;9.056;2023-03-01T10:39:15;21.37;;;17.13;;
505;SDS011;551;48.524;9.056;2023-03-01T10:42:00;23.50;;;18.90;;
505;SDS011;551;48.524;9.056;2023-03-01T10:44:38;21.97;;;18.00;;
505;SDS011;551;48.524;9.056;2023-03-01T10:47:17;21.17;;;17.90;;
505;SDS011;551;48.524;9.056;2023-03-01T10:50:00;22.40;;;17.43;;
505;SDS011;551;48.524;9.056;2023-03-01T10:52:32;19.37;;;16.60;;
505;SDS011;551;48.524;9.056;2023-03-01T10:57:41;18.97;;;16.77;;
505;SDS011;551;48.524;9.056;2023-03-01T11:02:42;22.60;;;17.30;;
505;SDS011;551;48.524;9.056;2023-03-01T11:07:46;20.07;;;17.50;;
505;SDS011;551;48.524;9.056;2023-03-01T11:10:16;23.20;;;19.03;;
505;SDS011;551;48.524;9.056;2023-03-01T11:13:08;20.80;;;18.10;;
505;SDS011;551;48.524;9.056;2023-03-01T11:15:42;20.73;;;17.40;;
505;SDS011;551;48.524;9.056;2023-03-01T11:18:22;22.08;;;19.00;;
505;SDS011;551;48.524;9.056;2023-03-01T11:20:48;24.80;;;19.00;;
505;SDS011;551;48.524;9.056;2023-03-01T11:23:18;22.47;;;17.70;;
505;SDS011;551;48.524;9.056;2023-03-01T11:25:49;23.30;;;17.80;;
505;SDS011;551;48.524;9.056;2023-03-01T11:28:20;23.43;;;17.50;;
505;SDS011;551;48.524;9.056;2023-03-01T11:30:57;20.70;;;17.43;;
505;SDS011;551;48.524;9.056;2023-03-01T11:36:28;20.10;;;17.83;;
505;SDS011;551;48.524;9.056;2023-03-01T11:39:04;18.90;;;15.90;;
505;SDS011;551;48.524;9.056;2023-03-01T11:41:41;21.57;;;17.83;;
505;SDS011;551;48.524;9.056;2023-03-01T11:49:38;18.30;;;16.13;;
505;SDS011;551;48.524;9.056;2023-03-01T11:52:21;23.60;;;17.20;;
505;SDS011;551;48.524;9.056;2023-03-01T12:03:25;20.20;;;16.00;;
505;SDS011;551;48.524;9.056;2023-03-01T12:16:59;19.70;;;15.10;;
505;SDS011;551;48.524;9.056;2023-03-01T12:19:54;22.27;;;15.53;;
505;SDS011;551;48.524;9.056;2023-03-01T12:22:58;20.13;;;15.03;;
505;SDS011;551;48.524;9.056;2023-03-01T12:25:33;18.37;;;14.50;;
505;SDS011;551;48.524;9.056;2023-03-01T12:28:17;18.30;;;15.30;;
505;SDS011;551;48.524;9.056;2023-03-01T12:33:53;21.50;;;14.60;;
505;SDS011;551;48.524;9.056;2023-03-01T12:36:42;18.70;;;15.20;;
505;SDS011;551;48.524;9.056;2023-03-01T12:42:19;19.63;;;15.07;;
505;SDS011;551;48.524;9.056;2023-03-01T12:47:53;17.53;;;14.90;;
505;SDS011;551;48.524;9.056;2023-03-01T12:50:42;17.40;;;14.73;;
505;SDS011;551;48.524;9.056;2023-03-01T12:56:00;18.57;;;14.77;;
505;SDS011;551;48.524;9.056;2023-03-01T12:58:32;16.60;;;14.20;;
505;SDS011;551;48.524;9.056;2023-03-01T13:01:08;20.20;;;14.57;;
505;SDS011;551;48.524;9.056;2023-03-01T13:11:52;18.50;;;15.20;;
505;SDS011;551;48.524;9.056;2023-03-01T13:16:50;19.50;;;14.80;;
505;SDS011;551;48.524;9.056;2023-03-01T13:19:20;17.60;;;14.70;;
505;SDS011;551;48.524;9.056;2023-03-01T13:21:50;16.43;;;13.63;;
505;SDS011;551;48.524;9.056;2023-03-01T13:29:30;15.77;;;13.90;;
505;SDS011;551;48.524;9.056;2023-03-01T13:32:18;19.03;;;14.50;;
505;SDS011;551;48.524;9.056;2023-03-01T13:34:46;18.57;;;14.67;;
505;SDS011;551;48.524;9.056;2023-03-01T13:37:20;20.70;;;15.03;;
505;SDS011;551;48.524;9.056;2023-03-01T13:39:48;20.43;;;15.63;;
505;SDS011;551;48.524;9.056;2023-03-01T13:47:40;20.40;;;14.60;;
505;SDS011;551;48.524;9.056;2023-03-01T13:50:15;24.60;;;15.33;;
505;SDS011;551;48.524;9.056;2023-03-01T13:52:45;19.43;;;15.33;;
505;SDS011;551;48.524;9.056;2023-03-01T13:55:23;22.07;;;17.17;;
505;SDS011;551;48.524;9.056;2023-03-01T13:57:54;22.20;;;16.00;;
505;SDS011;551;48.524;9.056;2023-03-01T14:00:29;21.33;;;15.13;;
505;SDS011;551;48.524;9.056;2023-03-01T14:03:01;20.80;;;15.40;;
505;SDS011;551;48.524;9.056;2023-03-01T14:05:28;19.43;;;14.57;;
505;SDS011;551;48.524;9.056;2023-03-01T14:07:54;19.67;;;14.60;;
505;SDS011;551;48.524;9.056;2023-03-01T14:10:20;22.83;;;15.80;;
505;SDS011;551;48.524;9.056;2023-03-01T14:12:49;18.03;;;14.80;;
505;SDS011;551;48.524;9.056;2023-03-01T14:15:36;20.83;;;15.40;;
505;SDS011;551;48.524;9.056;2023-03-01T14:18:14;21.07;;;16.27;;
505;SDS011;551;48.524;9.056;2023-03-01T14:20:54;18.97;;;15.20;;
505;SDS011;551;48.524;9.056;2023-03-01T14:23:21;17.40;;;14.87;;
505;SDS011;551;48.524;9.056;2023-03-01T14:30:51;21.53;;;14.10;;
505;SDS011;551;48.524;9.056;2023-03-01T14:33:20;23.67;;;16.17;;
505;SDS011;551;48.524;9.056;2023-03-01T14:35:56;21.40;;;15.00;;
505;SDS011;551;48.524;9.056;2023-03-01T14:38:29;24.50;;;14.97;;
505;SDS011;551;48.524;9.056;2023-03-01T14:41:13;21.47;;;14.63;;
505;SDS011;551;48.524;9.056;2023-03-01T14:43:44;21.30;;;16.10;;
505;SDS011;551;48.524;9.056;2023-03-01T14:46:19;19.40;;;13.57;;
505;SDS011;551;48.524;9.056;2023-03-01T14:48:51;21.00;;;14.43;;
505;SDS011;551;48.524;9.056;2023-03-01T14:51:19;18.10;;;13.53;;
505;SDS011;551;48.524;9.056;2023-03-01T14:53:45;24.40;;;14.03;;
505;SDS011;551;48.524;9.056;2023-03-01T14:56:14;20.73;;;14.33;;
505;SDS011;551;48.524;9.056;2023-03-01T14:58:44;20.63;;;13.80;;
505;SDS011;551;48.524;9.056;2023-03-01T15:01:13;21.50;;;13.87;;
505;SDS011;551;48.524;9.056;2023-03-01T15:03:44;22.23;;;13.97;;
505;SDS011;551;48.524;9.056;2023-03-01T15:06:15;22.43;;;15.30;;
505;SDS011;551;48.524;9.056;2023-03-01T15:08:44;21.20;;;14.10;;
505;SDS011;551;48.524;9.056;2023-03-01T15:13:38;22.17;;;13.90;;
505;SDS011;551;48.524;9.056;2023-03-01T15:18:37;23.83;;;14.10;;
505;SDS011;551;48.524;9.056;2023-03-01T15:21:09;23.60;;;14.93;;
505;SDS011;551;48.524;9.056;2023-03-01T15:23:48;20.60;;;13.80;;
505;SDS011;551;48.524;9.056;2023-03-01T15:26:23;20.00;;;14.65;;
505;SDS011;551;48.524;9.056;2023-03-01T15:28:52;17.93;;;13.73;;
505;SDS011;551;48.524;9.056;2023-03-01T15:31:23;18.23;;;12.93;;
505;SDS011;551;48.524;9.056;2023-03-01T15:33:51;17.87;;;13.17;;
505;SDS011;551;48.524;9.056;2023-03-01T15:36:30;17.97;;;13.50;;
505;SDS011;551;48.524;9.056;2023-03-01T15:39:05;23.37;;;14.13;;
505;SDS011;551;48.524;9.056;2023-03-01T15:41:50;16.90;;;12.00;;
505;SDS011;551;48.524;9.056;2023-03-01T15:44:17;24.33;;;14.67;;
505;SDS011;551;48.524;9.056;2023-03-01T15:46:54;20.10;;;13.03;;
505;SDS011;551;48.524;9.056;2023-03-01T15:49:39;21.87;;;12.77;;
505;SDS011;551;48.524;9.056;2023-03-01T15:52:11;23.33;;;14.77;;
505;SDS011;551;48.524;9.056;2023-03-01T15:54:46;19.33;;;14.47;;
505;SDS011;551;48.524;9.056;2023-03-01T15:57:12;21.80;;;14.23;;
505;SDS011;551;48.524;9.056;2023-03-01T15:59:41;19.77;;;12.53;;
505;SDS011;551;48.524;9.056;2023-03-01T16:02:09;21.77;;;14.43;;
505;SDS011;551;48.524;9.056;2023-03-01T16:04:37;24.47;;;15.70;;
505;SDS011;551;48.524;9.056;2023-03-01T16:07:03;22.63;;;14.33;;
505;SDS011;551;48.524;9.056;2023-03-01T16:09:29;31.97;;;15.10;;
505;SDS011;551;48.524;9.056;2023-03-01T16:11:55;23.17;;;14.13;;
505;SDS011;551;48.524;9.056;2023-03-01T16:14:20;21.73;;;15.27;;
505;SDS011;551;48.524;9.056;2023-03-01T16:16:46;26.33;;;14.50;;
505;SDS011;551;48.524;9.056;2023-03-01T16:19:15;19.00;;;13.70;;
505;SDS011;551;48.524;9.056;2023-03-01T16:21:41;27.87;;;13.43;;
505;SDS011;551;48.524;9.056;2023-03-01T16:24:14;24.47;;;13.63;;
505;SDS011;551;48.524;9.056;2023-03-01T16:26:40;21.77;;;14.07;;
505;SDS011;551;48.524;9.056;2023-03-01T16:29:06;23.43;;;14.57;;
505;SDS011;551;48.524;9.056;2023-03-01T16:31:32;18.83;;;13.47;;
505;SDS011;551;48.524;9.056;2023-03-01T16:33:58;24.80;;;13.60;;
505;SDS011;551;48.524;9.056;2023-03-01T16:36:25;20.27;;;13.30;;
505;SDS011;551;48.524;9.056;2023-03-01T16:38:53;20.73;;;12.33;;
505;SDS011;551;48.524;9.056;2023-03-01T16:41:20;22.97;;;13.87;;
505;SDS011;551;48.524;9.056;2023-03-01T16:43:48;25.73;;;14.30;;
505;SDS011;551;48.524;9.056;2023-03-01T16:46:18;18.83;;;13.60;;
505;SDS011;551;48.524;9.056;2023-03-01T16:48:46;22.27;;;13.77;;
505;SDS011;551;48.524;9.056;2023-03-01T16:51:12;22.53;;;14.20;;
505;SDS011;551;48.524;9.056;2023-03-01T16:53:38;23.63;;;14.13;;
505;SDS011;551;48.524;9.056;2023-03-01T16:56:05;25.27;;;14.37;;
505;SDS011;551;48.524;9.056;2023-03-01T16:58:32;16.80;;;12.83;;
505;SDS011;551;48.524;9.056;2023-03-01T17:01:03;27.53;;;14.07;;
505;SDS011;551;48.524;9.056;2023-03-01T17:03:30;24.30;;;13.40;;
505;SDS011;551;48.524;9.056;2023-03-01T17:05:56;21.00;;;13.50;;
505;SDS011;551;48.524;9.056;2023-03-01T17:08:21;23.60;;;12.50;;
505;SDS011;551;48.524;9.056;2023-03-01T17:10:47;20.20;;;13.37;;
505;SDS011;551;48.524;9.056;2023-03-01T17:13:12;20.07;;;13.00;;
505;SDS011;551;48.524;9.056;2023-03-01T17:15:41;19.00;;;13.17;;
505;SDS011;551;48.524;9.056;2023-03-01T17:18:07;17.77;;;11.97;;
505;SDS011;551;48.524;9.056;2023-03-01T17:20:33;17.63;;;11.77;;